Sutton, WV

5:28 PM EDT on September 24, 2016 (GMT -0400)
3301 airport rd sutton wv | | Change Station

Elev 1299 ft 38.70 °N, 80.65 °W | Updated 41 minutes ago

Partly Cloudy
Partly Cloudy
84.0 °F
Feels Like 86 °F
N
3.7
Wind Variable Wind from North

Today
High -- | Low -- °F
--% Chance of Precip.
Yesterday
High -- | Low -- °F
Precip. -- in
Pressure 30.12 in
Visibility 8.0 miles
Clouds Few 3000 ft
Heat Index 86 °F
Dew Point 66 °F
Humidity 54%
Rainfall 0.00 in
Snow Depth Not available.
7:12 AM 7:15 PM
Waning Crescent, 34% visible
METAR KEKN 242051Z AUTO 35010G16KT 8SM FEW030 25/17 A3014 RMK AO2 SLP200 T02500172 55006 TSNO
Pressure 30.12 in
Visibility 8.0 miles
Clouds Few 3000 ft
Heat Index 86 °F
Dew Point 66 °F
Humidity 54%
Rainfall 0.00 in
Snow Depth Not available.
7:12 AM 7:15 PM
Waning Crescent, 34% visible
METAR KEKN 242051Z AUTO 35010G16KT 8SM FEW030 25/17 A3014 RMK AO2 SLP200 T02500172 55006 TSNO

10-Day Weather Forecast

Almanac

Astronomy

Sep. 24, 2016 Rise Set
Actual Time
Civil Twilight
Nautical Twilight
Astronomical Twilight
Moon
Length of Visible Light
Length of Day
Tomorrow will be .
, % of the Moon is Illuminated

Today's Extremes

State Highs State Lows

Community

WunderPhotos

Upload Photos

1,941,433 photos uploaded!

WunderBlog® & News

Nearby

Air Quality

  Air Quality AQ Index Pollutant
Not available.

Snow Depth

Station Depth Elevation

Earthquake Activity

City Distance Mag. Time & Date
Minimum magnitude displayed is 2.5.

Coastal Water Temperatures

Place Temperature

Stations

Nearby Weather Stations

Station Location Temp. Windchill Dew Point Humidity Wind Precip. Elev Updated Type
                   

Watches & Warnings

There are currently no watches in effect.